Time;durP1;ratioP1;P1;durP2;ratioP2;P2;SDS_P1;SDS_P2;PMS_P1;PMS_P2;Temp;Humidity;BMP_temperature;BMP_pressure;BME280_temperature;BME280_humidity;BME280_pressure;Samples;Min_cycle;Max_cycle;Signal;HPM_P1;HPM_P2
2022/06/20 00:00:25;;;;;;;8.35;2.25;;;13.30;99.90;;;;;;4941463;28;20066;-74
2022/06/20 00:02:53;;;;;;;9.10;2.38;;;13.30;99.90;;;;;;4944573;29;20065;-74
2022/06/20 00:05:23;;;;;;;10.05;2.30;;;13.30;99.90;;;;;;4946489;28;20083;-74
2022/06/20 00:07:50;;;;;;;10.18;2.03;;;13.30;99.90;;;;;;4941296;29;20083;-73
2022/06/20 00:10:18;;;;;;;9.93;2.30;;;13.30;99.90;;;;;;4911221;29;20066;-73
2022/06/20 00:12:45;;;;;;;8.88;2.10;;;13.30;99.90;;;;;;4932651;29;20051;-73
2022/06/20 00:15:27;;;;;;;9.10;1.80;;;13.20;99.90;;;;;;4923389;29;20055;-73
2022/06/20 00:17:54;;;;;;;11.48;1.75;;;13.30;99.90;;;;;;4941427;29;20102;-74
2022/06/20 00:20:20;;;;;;;8.73;1.83;;;13.20;99.90;;;;;;4943878;28;20050;-73
2022/06/20 00:22:47;;;;;;;12.13;2.25;;;13.20;99.90;;;;;;4905497;29;20496;-74
2022/06/20 00:25:16;;;;;;;7.43;1.63;;;13.10;99.90;;;;;;4924693;29;20548;-73
2022/06/20 00:27:42;;;;;;;9.68;1.55;;;13.10;99.90;;;;;;4927930;29;20555;-74
2022/06/20 00:30:11;;;;;;;9.05;1.60;;;13.10;99.90;;;;;;4921605;29;20058;-74
2022/06/20 00:32:37;;;;;;;7.53;1.40;;;13.10;99.90;;;;;;4940711;29;20153;-73
2022/06/20 00:35:03;;;;;;;6.45;1.40;;;13.10;99.90;;;;;;4905856;29;20584;-74
2022/06/20 00:37:30;;;;;;;8.13;1.55;;;13.00;99.90;;;;;;4913245;29;20536;-74
2022/06/20 00:39:56;;;;;;;7.75;1.60;;;13.00;99.90;;;;;;4943927;28;20048;-74
2022/06/20 00:42:21;;;;;;;6.47;2.30;;;13.00;99.90;;;;;;4923905;29;20567;-74
2022/06/20 00:44:53;;;;;;;8.52;1.70;;;12.90;99.90;;;;;;4919480;29;20043;-73
2022/06/20 00:47:20;;;;;;;;;;;12.90;99.90;;;;;;4936684;29;20063;-74
2022/06/20 00:49:45;;;;;;;11.18;2.05;;;12.90;99.90;;;;;;4923245;29;20079;-74
2022/06/20 00:52:39;;;;;;;6.85;2.00;;;12.90;99.90;;;;;;4922607;29;20078;-74
2022/06/20 00:55:35;;;;;;;8.32;1.77;;;12.90;99.90;;;;;;4938876;28;20049;-74
2022/06/20 00:58:09;;;;;;;6.38;1.80;;;12.90;99.90;;;;;;4942486;28;20054;-74
2022/06/20 01:00:38;;;;;;;8.13;1.65;;;12.80;99.90;;;;;;4935668;29;20043;-74
2022/06/20 01:03:13;;;;;;;9.35;1.55;;;12.80;99.90;;;;;;4920950;29;20051;-74
2022/06/20 01:05:58;;;;;;;10.13;1.65;;;12.80;99.90;;;;;;4924181;29;20050;-74
2022/06/20 01:08:29;;;;;;;9.93;2.15;;;12.70;99.90;;;;;;4931027;29;20043;-74
2022/06/20 01:11:00;;;;;;;11.23;1.70;;;12.70;99.90;;;;;;4923146;29;20055;-73
2022/06/20 01:13:26;;;;;;;;;;;12.60;99.90;;;;;;4932844;29;20139;-74
2022/06/20 01:15:58;;;;;;;9.10;1.40;;;12.50;99.90;;;;;;4939037;28;19926;-73
2022/06/20 01:18:34;;;;;;;;;;;12.50;99.90;;;;;;4916958;29;20059;-74
2022/06/20 01:21:02;;;;;;;7.72;1.83;;;12.40;99.90;;;;;;4902451;29;20125;-74
2022/06/20 01:23:30;;;;;;;7.75;1.50;;;12.30;99.90;;;;;;4910781;29;20135;-73
2022/06/20 01:26:15;;;;;;;7.72;1.60;;;12.30;99.90;;;;;;4916605;29;20032;-74
2022/06/20 01:28:44;;;;;;;11.20;2.28;;;12.20;99.90;;;;;;4911941;29;20066;-73
2022/06/20 01:31:12;;;;;;;7.70;1.38;;;12.10;99.90;;;;;;4923225;29;20047;-73
2022/06/20 01:33:38;;;;;;;9.68;1.50;;;12.10;99.90;;;;;;4929384;29;20039;-73
2022/06/20 01:38:49;;;;;;;9.02;2.17;;;12.00;99.90;;;;;;4941362;28;20043;-74
2022/06/20 01:44:03;;;;;;;5.72;1.50;;;11.80;99.90;;;;;;4946719;28;20235;-74
2022/06/20 01:46:31;;;;;;;9.93;1.80;;;11.80;99.90;;;;;;4941016;28;20126;-74
2022/06/20 01:49:24;;;;;;;6.68;1.50;;;11.70;99.90;;;;;;4922481;29;20489;-74
2022/06/20 01:52:01;;;;;;;6.70;1.48;;;11.60;99.90;;;;;;4922709;29;20086;-74
2022/06/20 01:54:31;;;;;;;7.88;1.80;;;11.60;99.90;;;;;;4945546;28;20039;-74
2022/06/20 01:56:57;;;;;;;5.50;1.50;;;11.50;99.90;;;;;;4941977;29;20471;-75
2022/06/20 01:59:31;;;;;;;10.60;1.77;;;11.50;99.90;;;;;;4938796;29;20156;-74
2022/06/20 02:01:57;;;;;;;6.15;1.55;;;11.50;99.90;;;;;;4929212;29;20541;-74
2022/06/20 02:04:27;;;;;;;4.43;1.30;;;11.50;99.90;;;;;;4918190;28;20054;-73
2022/06/20 02:06:54;;;;;;;9.63;2.13;;;11.50;99.90;;;;;;4948682;28;20046;-74
2022/06/20 02:09:20;;;;;;;12.18;2.47;;;11.50;99.90;;;;;;4958158;28;20067;-74
2022/06/20 02:11:47;;;;;;;7.07;1.50;;;11.50;99.90;;;;;;4963887;29;20059;-73
2022/06/20 02:14:28;;;;;;;8.05;1.55;;;11.60;99.90;;;;;;4964015;28;20070;-74
2022/06/20 02:17:05;;;;;;;8.30;1.40;;;11.60;99.90;;;;;;4965077;28;20030;-73
2022/06/20 02:19:35;;;;;;;10.88;1.70;;;11.70;99.90;;;;;;4943478;29;20126;-73
2022/06/20 02:22:05;;;;;;;6.50;2.00;;;11.70;99.90;;;;;;4946497;28;20050;-74
2022/06/20 02:24:41;;;;;;;8.00;1.83;;;11.70;99.90;;;;;;4944310;29;20050;-74
2022/06/20 02:27:12;;;;;;;8.60;1.67;;;11.80;99.90;;;;;;4940970;28;20059;-74
2022/06/20 02:29:38;;;;;;;6.75;1.70;;;11.80;99.90;;;;;;4923565;29;20056;-74
2022/06/20 02:32:18;;;;;;;10.70;1.80;;;11.80;99.90;;;;;;4923308;29;20051;-74
2022/06/20 02:34:45;;;;;;;5.65;1.40;;;11.80;99.90;;;;;;4942150;29;20440;-74
2022/06/20 02:37:14;;;;;;;7.00;1.73;;;11.90;99.90;;;;;;4921040;29;20075;-74
2022/06/20 02:39:43;;;;;;;7.80;1.77;;;11.80;99.90;;;;;;4925624;29;20051;-74
2022/06/20 02:42:16;;;;;;;9.18;1.63;;;11.80;99.90;;;;;;4920666;29;20134;-74
2022/06/20 02:44:46;;;;;;;9.00;2.03;;;11.70;99.90;;;;;;4923531;29;20047;-74
2022/06/20 02:47:13;;;;;;;9.30;1.80;;;11.60;99.90;;;;;;4899422;29;20136;-74
2022/06/20 02:49:39;;;;;;;9.75;1.85;;;11.60;99.90;;;;;;4937441;28;20410;-74
2022/06/20 02:52:13;;;;;;;11.85;2.00;;;11.50;99.90;;;;;;4916396;29;20043;-74
2022/06/20 02:54:40;;;;;;;7.35;1.63;;;11.50;99.90;;;;;;4922836;29;20676;-74
2022/06/20 02:57:31;;;;;;;6.93;1.75;;;11.50;99.90;;;;;;4933977;29;20524;-74
2022/06/20 02:59:59;;;;;;;14.77;2.75;;;11.40;99.90;;;;;;4923689;29;20587;-74
2022/06/20 03:02:28;;;;;;;6.75;2.00;;;11.30;99.90;;;;;;4937332;29;20114;-75
2022/06/20 03:04:55;;;;;;;6.88;2.17;;;11.30;99.90;;;;;;4944404;28;20051;-75
2022/06/20 03:07:27;;;;;;;7.88;1.90;;;11.20;99.90;;;;;;4926812;29;20040;-74
2022/06/20 03:10:01;;;;;;;6.90;1.80;;;11.10;99.90;;;;;;4917097;29;20486;-74
2022/06/20 03:12:27;;;;;;;8.90;2.00;;;11.10;99.90;;;;;;4942967;28;20043;-75
2022/06/20 03:14:58;;;;;;;9.05;1.65;;;11.00;99.90;;;;;;4941309;29;20051;-75
2022/06/20 03:17:24;;;;;;;10.63;1.85;;;11.00;99.90;;;;;;4938335;29;20048;-75
2022/06/20 03:20:00;;;;;;;8.93;1.98;;;10.90;99.90;;;;;;4923428;29;20040;-73
2022/06/20 03:22:35;;;;;;;7.72;1.70;;;10.90;99.90;;;;;;4926000;29;20826;-74
2022/06/20 03:25:02;;;;;;;7.63;1.90;;;10.80;99.90;;;;;;4917795;29;20697;-74
2022/06/20 03:27:33;;;;;;;7.45;1.80;;;10.80;99.90;;;;;;4925757;29;20099;-74
2022/06/20 03:30:21;;;;;;;7.33;1.83;;;10.80;99.90;;;;;;4920940;29;20436;-74
2022/06/20 03:32:47;;;;;;;8.75;1.88;;;10.80;99.90;;;;;;4904973;29;20295;-75
2022/06/20 03:35:13;;;;;;;8.55;1.90;;;10.70;99.90;;;;;;4929649;29;20638;-74
2022/06/20 03:37:39;;;;;;;9.20;2.08;;;10.70;99.90;;;;;;4944230;28;20050;-74
2022/06/20 03:40:06;;;;;;;7.53;1.65;;;10.60;99.90;;;;;;4924365;29;20480;-74
2022/06/20 03:42:32;;;;;;;10.38;2.13;;;10.60;99.90;;;;;;4936202;28;20055;-74
2022/06/20 03:45:00;;;;;;;7.38;1.98;;;10.70;99.90;;;;;;4939082;28;20114;-74
2022/06/20 03:47:41;;;;;;;8.38;1.80;;;10.70;99.90;;;;;;4926541;29;20445;-72
2022/06/20 03:50:18;;;;;;;7.90;2.13;;;10.70;99.90;;;;;;4909660;29;21242;-72
2022/06/20 03:52:57;;;;;;;7.07;2.10;;;10.80;99.90;;;;;;4923046;29;20055;-73
2022/06/20 03:55:55;;;;;;;9.25;2.55;;;10.80;99.90;;;;;;4914171;29;20043;-73
2022/06/20 03:58:30;;;;;;;7.03;2.00;;;10.90;99.90;;;;;;4922136;29;20055;-73
2022/06/20 04:01:11;;;;;;;8.15;1.95;;;10.90;99.90;;;;;;4943861;29;20086;-73
2022/06/20 04:03:50;;;;;;;9.38;2.28;;;11.00;99.90;;;;;;4946546;28;20054;-73
2022/06/20 04:06:27;;;;;;;7.95;2.25;;;11.10;99.90;;;;;;4945882;28;20105;-73
2022/06/20 04:12:07;;;;;;;10.48;2.70;;;11.10;99.90;;;;;;4942269;29;20055;-73
2022/06/20 04:14:46;;;;;;;8.25;2.22;;;11.10;99.90;;;;;;4930696;29;20350;-73
2022/06/20 04:20:17;;;;;;;9.55;2.47;;;11.40;99.90;;;;;;4948324;28;20047;-73
2022/06/20 04:22:46;;;;;;;11.52;2.83;;;11.30;99.90;;;;;;4949818;28;20129;-72
2022/06/20 04:25:25;;;;;;;9.77;2.25;;;11.40;99.90;;;;;;4928074;29;20424;-73
2022/06/20 04:28:02;;;;;;;9.70;2.47;;;11.50;99.90;;;;;;4948869;29;20118;-73
2022/06/20 04:30:48;;;;;;;7.60;2.78;;;11.60;99.90;;;;;;4913542;29;20081;-73
2022/06/20 04:33:22;;;;;;;11.48;2.78;;;11.70;99.90;;;;;;4952449;28;20621;-73
2022/06/20 04:36:24;;;;;;;9.80;2.88;;;12.40;99.90;;;;;;4937050;29;20075;-73
2022/06/20 04:39:03;;;;;;;11.85;3.05;;;14.00;99.90;;;;;;4930163;29;20047;-73
2022/06/20 04:41:38;;;;;;;10.13;2.20;;;15.30;99.90;;;;;;4953032;29;20047;-73
2022/06/20 04:44:16;;;;;;;8.48;2.22;;;15.30;99.90;;;;;;4947502;28;20050;-73
2022/06/20 04:47:05;;;;;;;11.60;2.50;;;14.90;99.90;;;;;;4943130;29;20051;-73
2022/06/20 04:49:31;;;;;;;9.73;2.08;;;15.40;99.90;;;;;;4952454;29;20039;-73
2022/06/20 04:51:57;;;;;;;7.68;2.17;;;15.50;99.90;;;;;;4970912;28;20023;-73
2022/06/20 04:54:22;;;;;;;9.45;2.50;;;16.20;99.90;;;;;;4953518;28;20035;-73
2022/06/20 04:56:53;;;;;;;10.52;2.63;;;17.50;99.90;;;;;;4967523;28;20043;-73
2022/06/20 04:59:24;;;;;;;6.90;2.33;;;18.80;99.90;;;;;;4955293;28;20198;-73
2022/06/20 05:01:50;;;;;;;9.32;2.33;;;20.00;99.90;;;;;;4929881;29;20122;-73
2022/06/20 05:04:33;;;;;;;6.75;1.83;;;21.00;99.90;;;;;;4951100;28;20082;-74
2022/06/20 05:07:06;;;;;;;9.02;2.10;;;22.00;99.90;;;;;;4922598;29;20047;-73
2022/06/20 05:09:43;;;;;;;14.23;3.20;;;22.90;99.90;;;;;;4945474;28;20396;-74
2022/06/20 05:12:16;;;;;;;9.00;2.08;;;23.50;99.90;;;;;;4937140;28;20051;-74
2022/06/20 05:15:05;;;;;;;8.40;1.80;;;24.10;99.90;;;;;;4946021;28;20046;-74
2022/06/20 05:17:34;;;;;;;12.57;2.53;;;24.60;99.90;;;;;;4944179;28;20681;-74
2022/06/20 05:20:27;;;;;;;9.38;2.00;;;25.20;99.90;;;;;;4911670;29;20051;-74
2022/06/20 05:23:11;;;;;;;11.13;2.30;;;25.50;99.90;;;;;;4943652;28;20055;-74
2022/06/20 05:25:38;;;;;;;7.85;2.22;;;25.90;99.90;;;;;;4943147;28;20050;-74
2022/06/20 05:28:15;;;;;;;6.68;1.90;;;26.20;99.90;;;;;;4943831;29;20090;-74
2022/06/20 05:30:42;;;;;;;9.70;2.47;;;26.20;99.90;;;;;;4928908;29;20103;-74
2022/06/20 05:33:13;;;;;;;8.15;2.03;;;25.70;99.90;;;;;;4941409;29;20118;-74
2022/06/20 05:36:07;;;;;;;8.27;1.98;;;24.30;99.90;;;;;;4928371;29;20050;-74
2022/06/20 05:38:41;;;;;;;9.10;2.30;;;23.00;99.90;;;;;;4925307;29;20070;-74
2022/06/20 05:41:13;;;;;;;7.40;2.28;;;21.80;99.90;;;;;;4927991;29;20047;-74
2022/06/20 05:43:38;;;;;;;10.27;2.40;;;20.80;99.90;;;;;;4943597;28;20046;-74
2022/06/20 05:46:10;;;;;;;10.60;2.53;;;20.00;99.90;;;;;;4928115;29;20158;-74
2022/06/20 05:48:40;;;;;;;13.27;2.80;;;19.20;99.90;;;;;;4940995;29;20043;-74
2022/06/20 05:51:08;;;;;;;11.85;2.70;;;18.70;99.90;;;;;;4923070;29;20055;-74
2022/06/20 05:53:49;;;;;;;12.30;2.83;;;18.20;99.90;;;;;;4911350;29;20378;-74
2022/06/20 05:56:24;;;;;;;9.02;2.28;;;17.80;99.90;;;;;;4922482;29;20050;-74
2022/06/20 05:58:53;;;;;;;11.45;2.83;;;17.90;99.90;;;;;;4942843;29;20059;-74
2022/06/20 06:01:35;;;;;;;12.00;2.83;;;19.60;99.90;;;;;;4924144;29;20116;-74
2022/06/20 06:04:29;;;;;;;12.27;3.55;;;21.20;99.90;;;;;;4911811;29;20085;-74
2022/06/20 06:07:03;;;;;;;11.73;2.72;;;23.00;99.90;;;;;;4924152;29;20055;-72
2022/06/20 06:09:48;;;;;;;9.05;2.72;;;24.30;99.90;;;;;;4922978;29;20043;-71
2022/06/20 06:12:22;;;;;;;11.43;3.03;;;25.30;99.90;;;;;;4934763;28;20051;-72
2022/06/20 06:15:13;;;;;;;10.82;2.60;;;26.20;99.90;;;;;;4904982;29;20058;-73
2022/06/20 06:17:51;;;;;;;12.77;2.67;;;26.90;97.40;;;;;;4936464;29;20065;-72
2022/06/20 06:20:20;;;;;;;11.52;2.95;;;27.30;94.50;;;;;;4927245;29;20114;-73
2022/06/20 06:22:54;;;;;;;11.10;3.63;;;27.40;92.50;;;;;;4944527;28;20039;-72
2022/06/20 06:25:32;;;;;;;9.98;2.60;;;25.80;90.60;;;;;;4906805;29;20772;-73
2022/06/20 06:28:19;;;;;;;10.63;2.30;;;23.80;93.10;;;;;;4944245;28;20043;-72
2022/06/20 06:30:57;;;;;;;9.27;2.45;;;22.50;96.70;;;;;;4926336;28;20102;-72
2022/06/20 06:33:39;;;;;;;13.02;3.53;;;21.30;99.90;;;;;;4925722;29;20043;-71
2022/06/20 06:36:17;;;;;;;12.13;3.35;;;20.40;99.90;;;;;;4940214;28;20150;-71
2022/06/20 06:38:50;;;;;;;14.73;2.97;;;19.70;99.90;;;;;;4913651;29;20133;-75
2022/06/20 06:41:30;;;;;;;12.07;2.53;;;19.10;99.90;;;;;;4944392;28;20039;-71
2022/06/20 06:43:58;;;;;;;12.18;2.80;;;18.60;99.90;;;;;;4907430;29;20066;-72
2022/06/20 06:46:46;;;;;;;10.77;2.38;;;18.10;99.90;;;;;;4924975;29;20394;-71
2022/06/20 06:49:27;;;;;;;9.45;2.40;;;17.70;99.90;;;;;;4944240;28;20070;-70
2022/06/20 06:52:15;;;;;;;9.38;2.50;;;17.30;99.90;;;;;;4942386;28;20171;-72
2022/06/20 06:54:58;;;;;;;13.57;3.17;;;17.10;99.90;;;;;;4944283;29;20125;-72
2022/06/20 06:57:33;;;;;;;10.18;2.40;;;17.00;99.90;;;;;;4942106;29;20093;-72
2022/06/20 07:00:05;;;;;;;15.40;2.72;;;17.00;99.90;;;;;;4943227;29;20507;-72
2022/06/20 07:02:36;;;;;;;10.45;2.65;;;17.10;99.90;;;;;;4942729;28;20047;-72
2022/06/20 07:05:08;;;;;;;11.63;2.65;;;17.30;99.90;;;;;;4941622;28;20053;-71
2022/06/20 07:07:54;;;;;;;9.63;2.83;;;17.50;99.90;;;;;;4942448;29;20039;-71
2022/06/20 07:10:55;;;;;;;13.43;3.17;;;17.80;99.90;;;;;;4924288;29;20048;-72
2022/06/20 07:13:41;;;;;;;8.02;2.60;;;18.10;99.90;;;;;;4940509;29;20453;-71
2022/06/20 07:16:34;;;;;;;12.48;2.50;;;18.10;99.90;;;;;;4931476;28;20055;-72
2022/06/20 07:19:05;;;;;;;9.13;2.00;;;18.00;99.90;;;;;;4961144;28;20043;-72
2022/06/20 07:21:32;;;;;;;9.43;2.03;;;18.50;99.90;;;;;;4946410;28;20245;-72
2022/06/20 07:24:12;;;;;;;8.20;2.20;;;18.90;99.90;;;;;;4944615;28;20039;-71
2022/06/20 07:27:01;;;;;;;9.98;2.05;;;19.10;99.90;;;;;;4942999;28;20591;-71
2022/06/20 07:29:33;;;;;;;8.88;1.90;;;18.90;99.90;;;;;;4946839;28;20048;-71
2022/06/20 07:32:07;;;;;;;8.15;1.90;;;18.60;99.90;;;;;;4929381;29;20061;-72
2022/06/20 07:34:44;;;;;;;10.07;2.08;;;18.60;99.90;;;;;;4946482;28;20423;-71
2022/06/20 07:37:20;;;;;;;8.18;1.63;;;19.10;99.90;;;;;;4930313;29;20550;-72
2022/06/20 07:40:02;;;;;;;7.90;1.77;;;19.10;99.90;;;;;;4948098;29;20050;-73
2022/06/20 07:42:37;;;;;;;6.32;1.73;;;18.70;99.90;;;;;;4944209;29;20048;-71
2022/06/20 07:45:13;;;;;;;10.35;1.90;;;18.30;99.90;;;;;;4930839;29;20126;-70
2022/06/20 07:47:48;;;;;;;11.13;2.20;;;18.20;99.90;;;;;;4927583;29;20090;-70
2022/06/20 07:50:43;;;;;;;8.02;2.15;;;18.50;99.90;;;;;;4929144;29;20055;-71
2022/06/20 07:53:19;;;;;;;7.20;1.40;;;19.10;99.90;;;;;;4936963;28;20055;-70
2022/06/20 07:55:51;;;;;;;7.85;1.48;;;19.20;99.90;;;;;;4912906;29;20039;-70
2022/06/20 07:58:22;;;;;;;9.40;1.70;;;19.10;99.90;;;;;;4931180;29;20039;-70
2022/06/20 08:00:51;;;;;;;8.63;3.10;;;19.40;99.90;;;;;;4942085;28;20517;-70
2022/06/20 08:03:38;;;;;;;8.20;1.60;;;19.80;99.90;;;;;;4931165;29;20690;-71
2022/06/20 08:06:17;;;;;;;6.00;1.48;;;20.30;99.90;;;;;;4946853;28;20053;-71
2022/06/20 08:08:57;;;;;;;7.22;1.55;;;20.70;99.90;;;;;;4930304;29;20098;-71
2022/06/20 08:11:46;;;;;;;7.30;2.28;;;20.50;99.90;;;;;;4945647;29;20046;-70
2022/06/20 08:14:28;;;;;;;8.02;1.40;;;20.30;99.90;;;;;;4916530;29;20508;-70
2022/06/20 08:16:59;;;;;;;13.80;2.47;;;20.60;99.90;;;;;;4944481;28;20078;-70
2022/06/20 08:19:25;;;;;;;11.50;2.67;;;20.90;99.90;;;;;;4910710;29;20047;-71
2022/06/20 08:21:58;;;;;;;9.15;1.67;;;21.10;99.90;;;;;;4929675;29;20046;-71
2022/06/20 08:24:42;;;;;;;6.72;1.58;;;20.80;99.90;;;;;;4945138;28;20051;-70
2022/06/20 08:27:19;;;;;;;7.88;1.50;;;20.20;99.90;;;;;;4941703;29;20538;-70
2022/06/20 08:30:02;;;;;;;8.77;1.95;;;19.80;99.90;;;;;;4929044;29;20095;-70
2022/06/20 08:32:56;;;;;;;8.27;1.88;;;19.90;99.90;;;;;;4928681;29;20059;-70
2022/06/20 08:35:36;;;;;;;6.82;1.85;;;20.50;99.90;;;;;;4946519;29;20043;-70
2022/06/20 08:38:24;;;;;;;6.15;1.60;;;21.00;99.90;;;;;;4944417;28;20053;-71
2022/06/20 08:41:07;;;;;;;5.70;1.50;;;21.40;99.90;;;;;;4927459;29;20147;-71
2022/06/20 08:43:44;;;;;;;5.25;1.58;;;21.60;99.90;;;;;;4944909;29;20050;-70
2022/06/20 08:46:54;;;;;;;9.55;2.10;;;21.90;99.90;;;;;;4929273;29;20055;-71
2022/06/20 08:49:44;;;;;;;7.13;2.10;;;22.00;98.80;;;;;;4921023;29;20055;-70
2022/06/20 08:52:32;;;;;;;7.45;2.28;;;21.30;98.10;;;;;;4927376;29;20051;-70
2022/06/20 08:55:13;;;;;;;5.45;1.60;;;20.50;99.90;;;;;;4927318;29;20050;-69
2022/06/20 08:57:50;;;;;;;7.18;1.73;;;20.10;99.90;;;;;;4929482;29;20134;-69
2022/06/20 09:00:27;;;;;;;7.45;1.70;;;20.40;99.90;;;;;;4944514;28;20043;-69
2022/06/20 09:03:02;;;;;;;3.90;1.38;;;20.90;99.90;;;;;;4926799;29;20138;-69
2022/06/20 09:05:28;;;;;;;6.35;1.58;;;21.30;99.90;;;;;;4926222;29;20063;-70
2022/06/20 09:08:05;;;;;;;5.90;1.40;;;21.40;98.00;;;;;;4927964;29;20405;-69
2022/06/20 09:11:00;;;;;;;6.70;1.50;;;21.70;99.90;;;;;;4929066;29;20066;-69
2022/06/20 09:13:32;;;;;;;6.95;1.60;;;21.70;98.10;;;;;;4928388;29;20098;-71
2022/06/20 09:16:32;;;;;;;7.45;1.60;;;21.30;98.50;;;;;;4921699;29;20050;-70
2022/06/20 09:19:21;;;;;;;8.63;1.77;;;20.90;99.10;;;;;;4926204;28;20055;-73
2022/06/20 09:21:58;;;;;;;6.85;1.90;;;20.30;99.50;;;;;;4943177;28;20047;-71
2022/06/20 09:24:42;;;;;;;6.60;1.85;;;19.70;99.90;;;;;;4928722;29;20078;-70
2022/06/20 09:27:15;;;;;;;9.10;1.95;;;19.40;99.90;;;;;;4941574;29;20525;-71
2022/06/20 09:29:56;;;;;;;10.32;1.92;;;19.20;99.90;;;;;;4938084;28;20051;-71
2022/06/20 09:33:10;;;;;;;7.35;1.60;;;19.00;99.90;;;;;;4931437;29;20063;-70
2022/06/20 09:35:52;;;;;;;9.18;1.52;;;18.70;99.90;;;;;;4928504;29;20059;-71
2022/06/20 09:38:53;;;;;;;6.03;1.60;;;18.40;99.90;;;;;;4928176;29;20051;-71
2022/06/20 09:41:22;;;;;;;8.40;1.90;;;18.30;99.90;;;;;;4930633;29;20047;-71
2022/06/20 09:44:03;;;;;;;6.93;1.50;;;18.50;99.90;;;;;;4927002;29;20331;-70
2022/06/20 09:47:05;;;;;;;7.97;1.40;;;19.10;99.90;;;;;;4929228;29;20059;-72
2022/06/20 09:50:01;;;;;;;5.47;1.20;;;19.80;99.90;;;;;;4945611;29;20044;-72
2022/06/20 09:52:38;;;;;;;7.65;1.67;;;20.50;99.90;;;;;;4928432;29;20130;-71
2022/06/20 09:55:28;;;;;;;6.35;1.30;;;20.80;99.90;;;;;;4931377;29;20417;-70
2022/06/20 09:58:04;;;;;;;5.80;1.30;;;20.80;99.90;;;;;;4929379;29;20146;-71
2022/06/20 10:00:54;;;;;;;5.75;1.30;;;21.10;99.90;;;;;;4944159;28;20270;-69
2022/06/20 10:03:44;;;;;;;6.20;1.75;;;21.50;99.90;;;;;;4946079;29;20508;-70
2022/06/20 10:06:10;;;;;;;5.17;1.37;;;21.80;99.90;;;;;;4944156;29;20055;-70
2022/06/20 10:08:47;;;;;;;6.50;1.50;;;21.90;99.90;;;;;;4947338;28;20043;-69
2022/06/20 10:11:19;;;;;;;8.52;1.60;;;21.50;99.90;;;;;;4969473;28;20099;-70
2022/06/20 10:14:10;;;;;;;7.53;1.80;;;21.50;99.80;;;;;;4968892;28;20057;-71
2022/06/20 10:16:50;;;;;;;5.97;1.50;;;21.40;99.40;;;;;;4967189;28;20335;-70
2022/06/20 10:19:18;;;;;;;10.18;1.92;;;21.30;99.90;;;;;;4967314;28;20045;-69
2022/06/20 10:21:50;;;;;;;9.85;1.80;;;20.90;99.90;;;;;;4933746;29;20130;-70
2022/06/20 10:24:34;;;;;;;8.23;1.70;;;20.90;99.90;;;;;;4929503;29;20568;-69
2022/06/20 10:27:27;;;;;;;7.35;2.00;;;21.30;99.90;;;;;;4923687;29;20250;-70
2022/06/20 10:30:01;;;;;;;10.18;1.98;;;21.70;99.90;;;;;;4943692;28;20098;-70
2022/06/20 10:32:56;;;;;;;8.20;1.60;;;21.70;98.40;;;;;;4939836;29;20090;-70
2022/06/20 10:35:42;;;;;;;7.95;2.35;;;21.20;99.30;;;;;;4913964;29;20487;-70
2022/06/20 10:38:31;;;;;;;9.80;1.85;;;20.90;99.90;;;;;;4942368;28;20078;-70
2022/06/20 10:41:03;;;;;;;8.40;1.85;;;20.80;99.90;;;;;;4926331;29;20046;-71
2022/06/20 10:43:44;;;;;;;12.25;1.90;;;20.90;99.90;;;;;;4942646;29;20078;-70
2022/06/20 10:46:31;;;;;;;5.72;1.58;;;21.10;99.90;;;;;;4941968;28;20122;-71
2022/06/20 10:49:09;;;;;;;8.45;1.73;;;21.30;99.90;;;;;;4941739;29;20092;-70
2022/06/20 10:51:37;;;;;;;6.25;1.65;;;21.70;99.90;;;;;;4920753;29;20129;-70
2022/06/20 10:54:12;;;;;;;9.85;1.85;;;22.00;97.70;;;;;;4933863;28;20511;-69
2022/06/20 10:56:50;;;;;;;7.45;1.85;;;21.70;97.20;;;;;;4919779;29;20071;-70
2022/06/20 10:59:44;;;;;;;6.45;1.50;;;21.40;97.90;;;;;;4921674;29;20051;-70
2022/06/20 11:02:27;;;;;;;5.47;1.33;;;21.30;98.10;;;;;;4923133;28;20586;-70
2022/06/20 11:04:53;;;;;;;7.35;2.00;;;21.40;99.50;;;;;;4940410;29;20105;-70
2022/06/20 11:07:54;;;;;;;11.05;2.60;;;21.70;99.80;;;;;;4925236;29;20043;-71
2022/06/20 11:10:49;;;;;;;7.07;2.00;;;21.90;98.60;;;;;;4926726;29;20564;-72
2022/06/20 11:13:48;;;;;;;6.70;1.63;;;21.80;97.40;;;;;;4923232;29;20863;-70
2022/06/20 11:16:29;;;;;;;8.05;2.05;;;21.40;98.00;;;;;;4943826;29;20044;-70
2022/06/20 11:19:00;;;;;;;8.32;1.95;;;21.20;99.00;;;;;;4928601;29;20050;-71
2022/06/20 11:21:29;;;;;;;7.88;1.75;;;20.90;99.50;;;;;;4945668;28;20055;-71
2022/06/20 11:24:34;;;;;;;6.15;1.90;;;20.90;99.70;;;;;;4942576;28;20507;-71
2022/06/20 11:27:08;;;;;;;8.70;1.95;;;21.00;99.90;;;;;;4923104;29;20055;-71
2022/06/20 11:29:59;;;;;;;7.47;1.67;;;20.90;99.00;;;;;;4934769;29;20134;-70
2022/06/20 11:33:04;;;;;;;5.90;1.65;;;20.80;99.90;;;;;;4920758;29;20062;-71
2022/06/20 11:35:48;;;;;;;6.05;1.80;;;21.20;99.90;;;;;;4920986;29;20056;-71
2022/06/20 11:38:38;;;;;;;4.03;1.67;;;21.70;99.90;;;;;;4920121;29;20062;-72
2022/06/20 11:41:12;;;;;;;5.63;1.50;;;22.00;98.40;;;;;;4920601;29;20787;-71
2022/06/20 11:43:53;;;;;;;6.60;1.58;;;22.40;96.50;;;;;;4917766;29;20115;-71
2022/06/20 11:46:38;;;;;;;4.70;1.60;;;22.00;94.90;;;;;;4934422;28;20051;-71
2022/06/20 11:49:22;;;;;;;9.45;1.90;;;21.40;96.80;;;;;;4916253;29;20138;-71
2022/06/20 11:52:20;;;;;;;8.95;2.60;;;20.70;98.60;;;;;;4918264;29;20616;-71
2022/06/20 11:55:25;;;;;;;6.90;2.42;;;20.30;99.90;;;;;;4933828;29;20135;-70
2022/06/20 11:58:12;;;;;;;9.40;2.08;;;20.60;99.90;;;;;;4904879;29;20420;-71
2022/06/20 12:00:57;;;;;;;9.43;2.05;;;20.70;99.90;;;;;;4922065;29;20083;-71
2022/06/20 12:03:44;;;;;;;6.60;1.42;;;20.30;99.50;;;;;;4921610;29;20051;-73
2022/06/20 12:06:23;;;;;;;10.55;1.92;;;20.40;99.90;;;;;;4910785;29;20505;-70
2022/06/20 12:09:22;;;;;;;6.13;1.60;;;20.70;99.90;;;;;;4909417;29;20047;-71
2022/06/20 12:11:57;;;;;;;8.63;2.05;;;21.00;99.90;;;;;;4924053;29;20111;-71
2022/06/20 12:14:41;;;;;;;7.28;2.33;;;21.40;99.90;;;;;;4939266;29;20102;-72
2022/06/20 12:17:19;;;;;;;6.28;1.70;;;21.50;98.50;;;;;;4925565;29;20503;-70
2022/06/20 12:25:51;;;;;;;4.07;1.42;;;21.10;97.70;;;;;;4930541;29;20055;-71
2022/06/20 12:28:25;;;;;;;8.02;2.15;;;20.70;97.70;;;;;;4925844;29;20047;-71
2022/06/20 12:31:00;;;;;;;7.05;1.75;;;20.50;98.70;;;;;;4926634;29;20094;-71
2022/06/20 12:33:29;;;;;;;7.30;1.70;;;20.40;99.90;;;;;;4929598;29;20625;-71
2022/06/20 12:36:00;;;;;;;7.65;1.33;;;20.30;99.90;;;;;;4926667;29;20052;-71
2022/06/20 12:38:38;;;;;;;9.15;1.75;;;20.20;99.90;;;;;;4930358;29;20067;-71
2022/06/20 12:41:12;;;;;;;6.13;1.60;;;20.40;99.90;;;;;;4939220;28;20051;-71
2022/06/20 12:44:11;;;;;;;5.93;1.55;;;20.50;99.90;;;;;;4910678;29;20062;-71
2022/06/20 12:46:50;;;;;;;8.35;1.80;;;20.10;99.70;;;;;;4924935;29;20115;-72
2022/06/20 12:49:33;;;;;;;8.65;1.92;;;19.60;99.50;;;;;;4944673;29;20050;-71
2022/06/20 12:52:18;;;;;;;3.97;1.25;;;19.30;99.90;;;;;;4948069;29;20188;-72
2022/06/20 12:54:52;;;;;;;5.40;1.70;;;19.50;99.90;;;;;;4923941;29;20483;-71
2022/06/20 12:57:54;;;;;;;6.82;1.80;;;19.90;99.90;;;;;;4921001;29;20057;-72
2022/06/20 13:00:28;;;;;;;9.27;1.92;;;20.10;99.90;;;;;;4922289;29;20051;-71
2022/06/20 13:03:32;;;;;;;10.65;1.85;;;19.80;99.90;;;;;;4941378;28;20506;-72
2022/06/20 13:06:21;;;;;;;6.65;1.80;;;19.60;99.90;;;;;;4927740;29;20044;-72
2022/06/20 13:09:20;;;;;;;6.85;2.03;;;19.70;99.90;;;;;;4941696;29;20048;-71
2022/06/20 13:11:58;;;;;;;8.32;2.10;;;19.80;99.90;;;;;;4940203;28;20051;-72
2022/06/20 13:14:38;;;;;;;5.72;1.85;;;19.90;99.90;;;;;;4922384;29;20161;-72
2022/06/20 13:17:18;;;;;;;6.65;1.65;;;19.90;99.90;;;;;;4932304;28;20501;-71
2022/06/20 13:19:52;;;;;;;6.43;1.53;;;19.80;99.90;;;;;;4922376;29;20083;-72
2022/06/20 13:22:37;;;;;;;6.90;1.50;;;19.90;99.90;;;;;;4913548;29;20048;-72
2022/06/20 13:25:22;;;;;;;6.10;1.77;;;19.70;99.90;;;;;;4937120;28;20150;-72
2022/06/20 13:28:27;;;;;;;7.72;1.90;;;19.80;99.90;;;;;;4943223;28;20111;-72
2022/06/20 13:31:16;;;;;;;7.45;1.70;;;19.80;99.90;;;;;;4927811;29;20422;-73
2022/06/20 13:34:04;;;;;;;7.72;1.73;;;20.00;99.90;;;;;;4919001;29;20051;-72
2022/06/20 13:36:41;;;;;;;5.82;1.52;;;20.00;99.90;;;;;;4925337;29;20056;-72
2022/06/20 13:39:23;;;;;;;7.85;2.10;;;20.20;99.90;;;;;;4928648;29;20068;-72
2022/06/20 13:41:56;;;;;;;5.20;1.65;;;20.40;99.90;;;;;;4926130;29;20055;-72
2022/06/20 13:44:39;;;;;;;11.93;2.60;;;20.20;99.90;;;;;;4926819;29;20063;-71
2022/06/20 13:47:24;;;;;;;8.50;1.88;;;20.00;99.90;;;;;;4942184;28;20051;-71
2022/06/20 13:50:21;;;;;;;7.65;2.10;;;19.90;99.90;;;;;;4901883;29;20056;-72
2022/06/20 13:53:12;;;;;;;9.43;2.00;;;19.40;99.90;;;;;;4924020;29;20044;-72
2022/06/20 13:55:45;;;;;;;8.20;1.63;;;19.20;99.90;;;;;;4935033;29;20040;-72
2022/06/20 13:58:53;;;;;;;6.80;1.90;;;19.10;99.90;;;;;;4926481;29;20047;-71